sensor_id;sensor_type;location;lat;lon;timestamp;P1;durP1;ratioP1;P2;durP2;ratioP2
12367;SDS011;6248;49.812;6.620;2023-02-22T00:00:10;4.80;;;3.30;;
12367;SDS011;6248;49.812;6.620;2023-02-22T00:02:47;4.77;;;3.47;;
12367;SDS011;6248;49.812;6.620;2023-02-22T00:05:14;4.70;;;3.60;;
12367;SDS011;6248;49.812;6.620;2023-02-22T00:07:46;5.20;;;3.60;;
12367;SDS011;6248;49.812;6.620;2023-02-22T00:10:13;4.97;;;3.40;;
12367;SDS011;6248;49.812;6.620;2023-02-22T00:12:45;3.50;;;3.20;;
12367;SDS011;6248;49.812;6.620;2023-02-22T00:15:14;5.47;;;4.00;;
12367;SDS011;6248;49.812;6.620;2023-02-22T00:17:41;4.30;;;3.73;;
12367;SDS011;6248;49.812;6.620;2023-02-22T00:20:09;6.97;;;4.17;;
12367;SDS011;6248;49.812;6.620;2023-02-22T00:22:38;5.20;;;3.57;;
12367;SDS011;6248;49.812;6.620;2023-02-22T00:25:06;4.20;;;3.80;;
12367;SDS011;6248;49.812;6.620;2023-02-22T00:27:33;4.13;;;3.33;;
12367;SDS011;6248;49.812;6.620;2023-02-22T00:30:00;4.23;;;3.50;;
12367;SDS011;6248;49.812;6.620;2023-02-22T00:32:29;3.23;;;2.93;;
12367;SDS011;6248;49.812;6.620;2023-02-22T00:34:56;4.10;;;3.33;;
12367;SDS011;6248;49.812;6.620;2023-02-22T00:37:23;4.57;;;3.10;;
12367;SDS011;6248;49.812;6.620;2023-02-22T00:39:50;3.40;;;3.10;;
12367;SDS011;6248;49.812;6.620;2023-02-22T00:42:18;3.90;;;3.33;;
12367;SDS011;6248;49.812;6.620;2023-02-22T00:44:45;4.13;;;3.10;;
12367;SDS011;6248;49.812;6.620;2023-02-22T00:47:12;3.67;;;2.93;;
12367;SDS011;6248;49.812;6.620;2023-02-22T00:49:40;3.23;;;2.90;;
12367;SDS011;6248;49.812;6.620;2023-02-22T00:52:07;4.53;;;3.53;;
12367;SDS011;6248;49.812;6.620;2023-02-22T00:54:35;3.70;;;3.30;;
12367;SDS011;6248;49.812;6.620;2023-02-22T00:57:02;4.33;;;3.50;;
12367;SDS011;6248;49.812;6.620;2023-02-22T00:59:29;4.07;;;3.40;;
12367;SDS011;6248;49.812;6.620;2023-02-22T01:01:56;5.80;;;4.30;;
12367;SDS011;6248;49.812;6.620;2023-02-22T01:04:24;6.50;;;4.73;;
12367;SDS011;6248;49.812;6.620;2023-02-22T01:06:52;5.13;;;4.57;;
12367;SDS011;6248;49.812;6.620;2023-02-22T01:09:19;6.83;;;5.63;;
12367;SDS011;6248;49.812;6.620;2023-02-22T01:11:47;6.57;;;4.80;;
12367;SDS011;6248;49.812;6.620;2023-02-22T01:14:14;5.97;;;4.57;;
12367;SDS011;6248;49.812;6.620;2023-02-22T01:16:42;6.40;;;4.60;;
12367;SDS011;6248;49.812;6.620;2023-02-22T01:19:09;5.10;;;4.40;;
12367;SDS011;6248;49.812;6.620;2023-02-22T01:21:38;5.73;;;4.67;;
12367;SDS011;6248;49.812;6.620;2023-02-22T01:24:07;6.20;;;4.37;;
12367;SDS011;6248;49.812;6.620;2023-02-22T01:26:35;5.87;;;4.00;;
12367;SDS011;6248;49.812;6.620;2023-02-22T01:29:02;5.20;;;3.90;;
12367;SDS011;6248;49.812;6.620;2023-02-22T01:31:30;4.07;;;3.50;;
12367;SDS011;6248;49.812;6.620;2023-02-22T01:33:57;4.00;;;3.60;;
12367;SDS011;6248;49.812;6.620;2023-02-22T01:36:24;4.87;;;3.63;;
12367;SDS011;6248;49.812;6.620;2023-02-22T01:38:51;3.57;;;3.20;;
12367;SDS011;6248;49.812;6.620;2023-02-22T01:41:19;3.50;;;3.20;;
12367;SDS011;6248;49.812;6.620;2023-02-22T01:43:46;3.97;;;3.37;;
12367;SDS011;6248;49.812;6.620;2023-02-22T01:46:18;3.50;;;3.20;;
12367;SDS011;6248;49.812;6.620;2023-02-22T01:48:47;3.50;;;2.93;;
12367;SDS011;6248;49.812;6.620;2023-02-22T01:51:15;3.97;;;3.40;;
12367;SDS011;6248;49.812;6.620;2023-02-22T01:53:45;3.23;;;2.90;;
12367;SDS011;6248;49.812;6.620;2023-02-22T01:56:14;6.30;;;2.97;;
12367;SDS011;6248;49.812;6.620;2023-02-22T01:58:44;3.30;;;3.00;;
12367;SDS011;6248;49.812;6.620;2023-02-22T02:01:12;3.43;;;3.13;;
12367;SDS011;6248;49.812;6.620;2023-02-22T02:03:39;3.40;;;3.10;;
12367;SDS011;6248;49.812;6.620;2023-02-22T02:06:08;3.20;;;2.90;;
12367;SDS011;6248;49.812;6.620;2023-02-22T02:08:41;3.67;;;3.30;;
12367;SDS011;6248;49.812;6.620;2023-02-22T02:11:13;3.80;;;3.13;;
12367;SDS011;6248;49.812;6.620;2023-02-22T02:13:42;3.50;;;3.03;;
12367;SDS011;6248;49.812;6.620;2023-02-22T02:16:09;4.03;;;3.63;;
12367;SDS011;6248;49.812;6.620;2023-02-22T02:18:36;4.13;;;3.20;;
12367;SDS011;6248;49.812;6.620;2023-02-22T02:24:11;3.50;;;2.90;;
12367;SDS011;6248;49.812;6.620;2023-02-22T02:29:34;3.53;;;3.10;;
12367;SDS011;6248;49.812;6.620;2023-02-22T02:32:16;3.43;;;3.13;;
12367;SDS011;6248;49.812;6.620;2023-02-22T02:34:47;3.30;;;3.00;;
12367;SDS011;6248;49.812;6.620;2023-02-22T02:37:18;3.40;;;3.10;;
12367;SDS011;6248;49.812;6.620;2023-02-22T02:39:47;3.97;;;2.90;;
12367;SDS011;6248;49.812;6.620;2023-02-22T02:42:17;3.50;;;3.20;;
12367;SDS011;6248;49.812;6.620;2023-02-22T02:44:47;4.40;;;3.30;;
12367;SDS011;6248;49.812;6.620;2023-02-22T02:47:18;3.70;;;2.97;;
12367;SDS011;6248;49.812;6.620;2023-02-22T02:49:47;4.13;;;3.30;;
12367;SDS011;6248;49.812;6.620;2023-02-22T02:52:17;3.70;;;3.40;;
12367;SDS011;6248;49.812;6.620;2023-02-22T02:54:44;4.77;;;3.53;;
12367;SDS011;6248;49.812;6.620;2023-02-22T02:57:12;3.50;;;3.20;;
12367;SDS011;6248;49.812;6.620;2023-02-22T02:59:39;3.30;;;3.00;;
12367;SDS011;6248;49.812;6.620;2023-02-22T03:02:09;3.60;;;3.30;;
12367;SDS011;6248;49.812;6.620;2023-02-22T03:04:45;3.77;;;3.27;;
12367;SDS011;6248;49.812;6.620;2023-02-22T03:07:24;3.13;;;2.83;;
12367;SDS011;6248;49.812;6.620;2023-02-22T03:09:58;3.57;;;3.20;;
12367;SDS011;6248;49.812;6.620;2023-02-22T03:12:30;3.37;;;3.07;;
12367;SDS011;6248;49.812;6.620;2023-02-22T03:15:01;3.90;;;3.60;;
12367;SDS011;6248;49.812;6.620;2023-02-22T03:17:33;4.47;;;2.90;;
12367;SDS011;6248;49.812;6.620;2023-02-22T03:20:08;3.77;;;3.30;;
12367;SDS011;6248;49.812;6.620;2023-02-22T03:22:38;4.17;;;3.20;;
12367;SDS011;6248;49.812;6.620;2023-02-22T03:25:09;3.33;;;2.80;;
12367;SDS011;6248;49.812;6.620;2023-02-22T03:27:39;3.50;;;3.20;;
12367;SDS011;6248;49.812;6.620;2023-02-22T03:30:09;3.30;;;3.00;;
12367;SDS011;6248;49.812;6.620;2023-02-22T03:32:39;4.20;;;3.80;;
12367;SDS011;6248;49.812;6.620;2023-02-22T03:35:10;3.73;;;3.20;;
12367;SDS011;6248;49.812;6.620;2023-02-22T03:37:39;3.60;;;3.27;;
12367;SDS011;6248;49.812;6.620;2023-02-22T03:40:08;3.67;;;3.37;;
12367;SDS011;6248;49.812;6.620;2023-02-22T03:42:39;3.50;;;3.20;;
12367;SDS011;6248;49.812;6.620;2023-02-22T03:45:07;3.73;;;3.27;;
12367;SDS011;6248;49.812;6.620;2023-02-22T03:47:36;4.17;;;3.10;;
12367;SDS011;6248;49.812;6.620;2023-02-22T03:50:05;3.43;;;3.13;;
12367;SDS011;6248;49.812;6.620;2023-02-22T03:52:34;5.40;;;3.60;;
12367;SDS011;6248;49.812;6.620;2023-02-22T03:55:02;3.53;;;3.10;;
12367;SDS011;6248;49.812;6.620;2023-02-22T03:57:35;3.80;;;3.40;;
12367;SDS011;6248;49.812;6.620;2023-02-22T04:00:04;5.70;;;3.43;;
12367;SDS011;6248;49.812;6.620;2023-02-22T04:02:31;4.37;;;3.47;;
12367;SDS011;6248;49.812;6.620;2023-02-22T04:04:59;4.53;;;3.70;;
12367;SDS011;6248;49.812;6.620;2023-02-22T04:07:26;4.97;;;3.93;;
12367;SDS011;6248;49.812;6.620;2023-02-22T04:09:54;3.97;;;3.50;;
12367;SDS011;6248;49.812;6.620;2023-02-22T04:12:21;4.70;;;3.23;;
12367;SDS011;6248;49.812;6.620;2023-02-22T04:14:49;4.10;;;3.30;;
12367;SDS011;6248;49.812;6.620;2023-02-22T04:17:16;4.10;;;3.70;;
12367;SDS011;6248;49.812;6.620;2023-02-22T04:19:43;4.00;;;3.57;;
12367;SDS011;6248;49.812;6.620;2023-02-22T04:22:10;4.07;;;3.67;;
12367;SDS011;6248;49.812;6.620;2023-02-22T04:27:14;4.23;;;3.47;;
12367;SDS011;6248;49.812;6.620;2023-02-22T04:29:41;4.53;;;3.90;;
12367;SDS011;6248;49.812;6.620;2023-02-22T04:32:08;5.80;;;3.90;;
12367;SDS011;6248;49.812;6.620;2023-02-22T04:34:36;4.97;;;4.47;;
12367;SDS011;6248;49.812;6.620;2023-02-22T04:37:05;6.67;;;4.27;;
12367;SDS011;6248;49.812;6.620;2023-02-22T04:39:34;6.47;;;4.30;;
12367;SDS011;6248;49.812;6.620;2023-02-22T04:42:01;6.63;;;5.03;;
12367;SDS011;6248;49.812;6.620;2023-02-22T04:44:30;6.07;;;4.93;;
12367;SDS011;6248;49.812;6.620;2023-02-22T04:46:57;5.60;;;5.03;;
12367;SDS011;6248;49.812;6.620;2023-02-22T04:49:24;6.20;;;5.33;;
12367;SDS011;6248;49.812;6.620;2023-02-22T04:51:52;6.20;;;5.60;;
12367;SDS011;6248;49.812;6.620;2023-02-22T04:54:19;7.93;;;6.10;;
12367;SDS011;6248;49.812;6.620;2023-02-22T04:56:46;8.13;;;6.53;;
12367;SDS011;6248;49.812;6.620;2023-02-22T04:59:13;8.73;;;6.87;;
12367;SDS011;6248;49.812;6.620;2023-02-22T05:01:42;9.40;;;8.00;;
12367;SDS011;6248;49.812;6.620;2023-02-22T05:04:09;9.47;;;7.93;;
12367;SDS011;6248;49.812;6.620;2023-02-22T05:06:36;9.57;;;8.10;;
12367;SDS011;6248;49.812;6.620;2023-02-22T05:09:03;8.70;;;7.77;;
12367;SDS011;6248;49.812;6.620;2023-02-22T05:11:30;8.87;;;7.83;;
12367;SDS011;6248;49.812;6.620;2023-02-22T05:13:58;9.37;;;8.13;;
12367;SDS011;6248;49.812;6.620;2023-02-22T05:16:25;10.60;;;7.97;;
12367;SDS011;6248;49.812;6.620;2023-02-22T05:18:53;9.53;;;8.10;;
12367;SDS011;6248;49.812;6.620;2023-02-22T05:21:20;9.90;;;7.63;;
12367;SDS011;6248;49.812;6.620;2023-02-22T05:23:48;9.63;;;7.70;;
12367;SDS011;6248;49.812;6.620;2023-02-22T05:26:15;11.50;;;8.43;;
12367;SDS011;6248;49.812;6.620;2023-02-22T05:28:43;11.23;;;8.00;;
12367;SDS011;6248;49.812;6.620;2023-02-22T05:31:10;9.30;;;7.93;;
12367;SDS011;6248;49.812;6.620;2023-02-22T05:33:37;8.83;;;7.63;;
12367;SDS011;6248;49.812;6.620;2023-02-22T05:36:08;10.90;;;8.30;;
12367;SDS011;6248;49.812;6.620;2023-02-22T05:38:35;10.63;;;7.87;;
12367;SDS011;6248;49.812;6.620;2023-02-22T05:41:07;11.00;;;8.40;;
12367;SDS011;6248;49.812;6.620;2023-02-22T05:43:34;10.00;;;8.33;;
12367;SDS011;6248;49.812;6.620;2023-02-22T05:46:02;12.10;;;7.90;;
12367;SDS011;6248;49.812;6.620;2023-02-22T05:48:29;9.27;;;7.87;;
12367;SDS011;6248;49.812;6.620;2023-02-22T05:50:56;9.43;;;7.60;;
12367;SDS011;6248;49.812;6.620;2023-02-22T05:53:25;8.97;;;7.30;;
12367;SDS011;6248;49.812;6.620;2023-02-22T05:55:52;9.77;;;7.43;;
12367;SDS011;6248;49.812;6.620;2023-02-22T05:58:19;8.23;;;7.33;;
12367;SDS011;6248;49.812;6.620;2023-02-22T06:00:47;10.97;;;8.37;;
12367;SDS011;6248;49.812;6.620;2023-02-22T06:03:14;11.77;;;8.80;;
12367;SDS011;6248;49.812;6.620;2023-02-22T06:05:41;11.40;;;9.13;;
12367;SDS011;6248;49.812;6.620;2023-02-22T06:08:08;11.23;;;8.83;;
12367;SDS011;6248;49.812;6.620;2023-02-22T06:10:37;11.27;;;8.77;;
12367;SDS011;6248;49.812;6.620;2023-02-22T06:13:04;9.23;;;8.13;;
12367;SDS011;6248;49.812;6.620;2023-02-22T06:15:32;9.70;;;8.20;;
12367;SDS011;6248;49.812;6.620;2023-02-22T06:17:59;8.63;;;6.70;;
12367;SDS011;6248;49.812;6.620;2023-02-22T06:20:27;8.30;;;7.17;;
12367;SDS011;6248;49.812;6.620;2023-02-22T06:22:55;8.43;;;6.80;;
12367;SDS011;6248;49.812;6.620;2023-02-22T06:25:23;9.10;;;7.43;;
12367;SDS011;6248;49.812;6.620;2023-02-22T06:27:52;9.53;;;7.20;;
12367;SDS011;6248;49.812;6.620;2023-02-22T06:30:20;7.80;;;6.83;;
12367;SDS011;6248;49.812;6.620;2023-02-22T06:32:47;10.43;;;7.83;;
12367;SDS011;6248;49.812;6.620;2023-02-22T06:35:17;8.83;;;7.03;;
12367;SDS011;6248;49.812;6.620;2023-02-22T06:37:45;9.97;;;7.47;;
12367;SDS011;6248;49.812;6.620;2023-02-22T06:40:12;9.30;;;7.10;;
12367;SDS011;6248;49.812;6.620;2023-02-22T06:42:39;8.73;;;7.10;;
12367;SDS011;6248;49.812;6.620;2023-02-22T06:45:08;8.63;;;7.20;;
12367;SDS011;6248;49.812;6.620;2023-02-22T06:47:39;8.37;;;7.23;;
12367;SDS011;6248;49.812;6.620;2023-02-22T06:50:06;9.13;;;7.37;;
12367;SDS011;6248;49.812;6.620;2023-02-22T06:52:34;9.50;;;6.87;;
12367;SDS011;6248;49.812;6.620;2023-02-22T06:55:01;7.77;;;6.97;;
12367;SDS011;6248;49.812;6.620;2023-02-22T06:57:28;8.20;;;6.93;;
12367;SDS011;6248;49.812;6.620;2023-02-22T06:59:55;8.90;;;7.30;;
12367;SDS011;6248;49.812;6.620;2023-02-22T07:02:23;8.30;;;7.30;;
12367;SDS011;6248;49.812;6.620;2023-02-22T07:04:50;9.70;;;7.37;;
12367;SDS011;6248;49.812;6.620;2023-02-22T07:07:20;8.87;;;7.43;;
12367;SDS011;6248;49.812;6.620;2023-02-22T07:09:49;7.10;;;6.33;;
12367;SDS011;6248;49.812;6.620;2023-02-22T07:12:16;9.90;;;7.90;;
12367;SDS011;6248;49.812;6.620;2023-02-22T07:14:43;8.90;;;7.47;;
12367;SDS011;6248;49.812;6.620;2023-02-22T07:17:10;8.40;;;7.10;;
12367;SDS011;6248;49.812;6.620;2023-02-22T07:19:39;8.83;;;6.83;;
12367;SDS011;6248;49.812;6.620;2023-02-22T07:22:06;9.77;;;7.97;;
12367;SDS011;6248;49.812;6.620;2023-02-22T07:24:33;8.37;;;7.40;;
12367;SDS011;6248;49.812;6.620;2023-02-22T07:27:00;10.53;;;8.13;;
12367;SDS011;6248;49.812;6.620;2023-02-22T07:29:27;11.27;;;7.60;;
12367;SDS011;6248;49.812;6.620;2023-02-22T07:31:55;9.23;;;7.50;;
12367;SDS011;6248;49.812;6.620;2023-02-22T07:34:22;10.33;;;7.97;;
12367;SDS011;6248;49.812;6.620;2023-02-22T07:36:51;11.30;;;9.23;;
12367;SDS011;6248;49.812;6.620;2023-02-22T07:39:18;9.93;;;8.93;;
12367;SDS011;6248;49.812;6.620;2023-02-22T07:41:45;11.07;;;9.40;;
12367;SDS011;6248;49.812;6.620;2023-02-22T07:44:13;12.70;;;9.80;;
12367;SDS011;6248;49.812;6.620;2023-02-22T07:46:41;12.17;;;9.57;;
12367;SDS011;6248;49.812;6.620;2023-02-22T07:49:12;9.93;;;8.73;;
12367;SDS011;6248;49.812;6.620;2023-02-22T07:51:39;11.13;;;9.77;;
12367;SDS011;6248;49.812;6.620;2023-02-22T07:54:08;12.47;;;10.70;;
12367;SDS011;6248;49.812;6.620;2023-02-22T07:56:35;11.47;;;10.23;;
12367;SDS011;6248;49.812;6.620;2023-02-22T07:59:02;14.07;;;10.80;;
12367;SDS011;6248;49.812;6.620;2023-02-22T08:01:29;11.53;;;10.20;;
12367;SDS011;6248;49.812;6.620;2023-02-22T08:03:56;13.83;;;11.70;;
12367;SDS011;6248;49.812;6.620;2023-02-22T08:06:24;13.53;;;11.57;;
12367;SDS011;6248;49.812;6.620;2023-02-22T08:08:52;14.23;;;11.70;;
12367;SDS011;6248;49.812;6.620;2023-02-22T08:11:20;12.03;;;10.37;;
12367;SDS011;6248;49.812;6.620;2023-02-22T08:13:47;11.70;;;10.50;;
12367;SDS011;6248;49.812;6.620;2023-02-22T08:16:15;12.73;;;9.97;;
12367;SDS011;6248;49.812;6.620;2023-02-22T08:18:43;11.73;;;10.47;;
12367;SDS011;6248;49.812;6.620;2023-02-22T08:21:10;10.97;;;9.53;;
12367;SDS011;6248;49.812;6.620;2023-02-22T08:23:37;10.30;;;8.63;;
12367;SDS011;6248;49.812;6.620;2023-02-22T08:26:05;10.83;;;8.87;;
12367;SDS011;6248;49.812;6.620;2023-02-22T08:28:33;10.77;;;8.23;;
12367;SDS011;6248;49.812;6.620;2023-02-22T08:31:00;9.90;;;8.83;;
12367;SDS011;6248;49.812;6.620;2023-02-22T08:33:28;9.33;;;8.33;;
12367;SDS011;6248;49.812;6.620;2023-02-22T08:35:55;9.17;;;8.17;;
12367;SDS011;6248;49.812;6.620;2023-02-22T08:38:23;10.20;;;8.43;;
12367;SDS011;6248;49.812;6.620;2023-02-22T08:40:51;9.73;;;8.73;;
12367;SDS011;6248;49.812;6.620;2023-02-22T08:43:18;8.67;;;7.77;;
12367;SDS011;6248;49.812;6.620;2023-02-22T08:45:47;8.57;;;7.63;;
12367;SDS011;6248;49.812;6.620;2023-02-22T08:48:15;9.40;;;7.60;;
12367;SDS011;6248;49.812;6.620;2023-02-22T08:50:43;8.80;;;7.47;;
12367;SDS011;6248;49.812;6.620;2023-02-22T08:53:11;7.33;;;6.63;;
12367;SDS011;6248;49.812;6.620;2023-02-22T08:55:39;8.00;;;6.40;;
12367;SDS011;6248;49.812;6.620;2023-02-22T08:58:06;8.17;;;7.20;;
12367;SDS011;6248;49.812;6.620;2023-02-22T09:00:34;8.57;;;6.93;;
12367;SDS011;6248;49.812;6.620;2023-02-22T09:03:04;10.43;;;7.80;;
12367;SDS011;6248;49.812;6.620;2023-02-22T09:05:32;12.93;;;7.50;;
12367;SDS011;6248;49.812;6.620;2023-02-22T09:07:59;8.20;;;6.60;;
12367;SDS011;6248;49.812;6.620;2023-02-22T09:10:27;8.17;;;7.10;;
12367;SDS011;6248;49.812;6.620;2023-02-22T09:12:55;7.57;;;6.50;;
12367;SDS011;6248;49.812;6.620;2023-02-22T09:15:22;9.00;;;7.17;;
12367;SDS011;6248;49.812;6.620;2023-02-22T09:17:50;7.50;;;6.70;;
12367;SDS011;6248;49.812;6.620;2023-02-22T09:20:19;7.63;;;6.83;;
12367;SDS011;6248;49.812;6.620;2023-02-22T09:25:15;7.83;;;6.93;;
12367;SDS011;6248;49.812;6.620;2023-02-22T09:27:45;7.30;;;6.60;;
12367;SDS011;6248;49.812;6.620;2023-02-22T09:30:16;7.83;;;6.83;;
12367;SDS011;6248;49.812;6.620;2023-02-22T09:32:44;8.33;;;7.53;;
12367;SDS011;6248;49.812;6.620;2023-02-22T09:35:11;9.60;;;8.43;;
12367;SDS011;6248;49.812;6.620;2023-02-22T09:37:39;9.97;;;8.97;;
12367;SDS011;6248;49.812;6.620;2023-02-22T09:40:09;8.97;;;6.63;;
12367;SDS011;6248;49.812;6.620;2023-02-22T09:42:43;6.83;;;6.03;;
12367;SDS011;6248;49.812;6.620;2023-02-22T09:45:13;7.07;;;6.37;;
12367;SDS011;6248;49.812;6.620;2023-02-22T09:47:42;7.37;;;6.43;;
12367;SDS011;6248;49.812;6.620;2023-02-22T09:50:11;8.20;;;5.90;;
12367;SDS011;6248;49.812;6.620;2023-02-22T09:52:42;6.97;;;6.07;;
12367;SDS011;6248;49.812;6.620;2023-02-22T09:55:15;7.67;;;6.80;;
12367;SDS011;6248;49.812;6.620;2023-02-22T09:57:47;7.87;;;6.50;;
12367;SDS011;6248;49.812;6.620;2023-02-22T10:00:22;8.10;;;6.67;;
12367;SDS011;6248;49.812;6.620;2023-02-22T10:02:56;9.47;;;7.97;;
12367;SDS011;6248;49.812;6.620;2023-02-22T10:05:28;11.07;;;8.77;;
12367;SDS011;6248;49.812;6.620;2023-02-22T10:07:59;13.17;;;10.10;;
12367;SDS011;6248;49.812;6.620;2023-02-22T10:10:30;11.47;;;9.23;;
12367;SDS011;6248;49.812;6.620;2023-02-22T10:12:59;12.63;;;9.90;;
12367;SDS011;6248;49.812;6.620;2023-02-22T10:15:29;9.43;;;8.10;;
12367;SDS011;6248;49.812;6.620;2023-02-22T10:18:12;9.43;;;7.47;;
12367;SDS011;6248;49.812;6.620;2023-02-22T10:20:46;10.23;;;8.97;;
12367;SDS011;6248;49.812;6.620;2023-02-22T10:23:19;13.03;;;9.97;;
12367;SDS011;6248;49.812;6.620;2023-02-22T10:25:48;12.10;;;9.50;;
12367;SDS011;6248;49.812;6.620;2023-02-22T10:28:18;12.13;;;9.97;;
12367;SDS011;6248;49.812;6.620;2023-02-22T10:30:49;13.43;;;9.57;;
12367;SDS011;6248;49.812;6.620;2023-02-22T10:33:19;11.23;;;9.63;;
12367;SDS011;6248;49.812;6.620;2023-02-22T10:35:48;12.80;;;9.63;;
12367;SDS011;6248;49.812;6.620;2023-02-22T10:38:20;14.47;;;10.97;;
12367;SDS011;6248;49.812;6.620;2023-02-22T10:40:49;16.87;;;11.47;;
12367;SDS011;6248;49.812;6.620;2023-02-22T10:43:17;13.13;;;11.23;;
12367;SDS011;6248;49.812;6.620;2023-02-22T10:45:44;15.27;;;11.77;;
12367;SDS011;6248;49.812;6.620;2023-02-22T10:48:12;15.50;;;11.13;;
12367;SDS011;6248;49.812;6.620;2023-02-22T10:50:43;17.67;;;12.87;;
12367;SDS011;6248;49.812;6.620;2023-02-22T10:53:11;16.10;;;12.33;;
12367;SDS011;6248;49.812;6.620;2023-02-22T10:58:23;14.17;;;12.33;;
12367;SDS011;6248;49.812;6.620;2023-02-22T11:00:50;13.60;;;12.10;;
12367;SDS011;6248;49.812;6.620;2023-02-22T11:03:19;13.77;;;12.37;;
12367;SDS011;6248;49.812;6.620;2023-02-22T11:05:47;15.10;;;12.67;;
12367;SDS011;6248;49.812;6.620;2023-02-22T11:08:17;14.43;;;12.30;;
12367;SDS011;6248;49.812;6.620;2023-02-22T11:10:49;14.43;;;11.90;;
12367;SDS011;6248;49.812;6.620;2023-02-22T11:13:17;12.10;;;10.97;;
12367;SDS011;6248;49.812;6.620;2023-02-22T11:15:45;12.57;;;11.13;;
12367;SDS011;6248;49.812;6.620;2023-02-22T11:18:20;16.30;;;12.00;;
12367;SDS011;6248;49.812;6.620;2023-02-22T11:20:48;13.10;;;11.67;;
12367;SDS011;6248;49.812;6.620;2023-02-22T11:23:24;14.53;;;12.40;;
12367;SDS011;6248;49.812;6.620;2023-02-22T11:25:51;12.60;;;11.30;;
12367;SDS011;6248;49.812;6.620;2023-02-22T11:28:27;13.80;;;11.03;;
12367;SDS011;6248;49.812;6.620;2023-02-22T11:31:07;12.90;;;10.77;;
12367;SDS011;6248;49.812;6.620;2023-02-22T11:33:34;13.90;;;11.15;;
12367;SDS011;6248;49.812;6.620;2023-02-22T11:36:03;13.13;;;11.10;;
12367;SDS011;6248;49.812;6.620;2023-02-22T11:38:33;13.18;;;10.65;;
12367;SDS011;6248;49.812;6.620;2023-02-22T11:41:06;11.50;;;10.32;;
12367;SDS011;6248;49.812;6.620;2023-02-22T11:43:33;13.63;;;10.98;;
12367;SDS011;6248;49.812;6.620;2023-02-22T11:46:02;13.48;;;11.35;;
12367;SDS011;6248;49.812;6.620;2023-02-22T11:48:32;13.77;;;11.32;;
12367;SDS011;6248;49.812;6.620;2023-02-22T11:51:17;14.55;;;11.05;;
12367;SDS011;6248;49.812;6.620;2023-02-22T11:56:44;13.77;;;11.77;;
12367;SDS011;6248;49.812;6.620;2023-02-22T11:59:14;12.85;;;11.48;;
12367;SDS011;6248;49.812;6.620;2023-02-22T12:01:49;14.88;;;10.88;;
12367;SDS011;6248;49.812;6.620;2023-02-22T12:09:42;12.05;;;10.38;;
12367;SDS011;6248;49.812;6.620;2023-02-22T12:12:14;16.48;;;11.75;;
12367;SDS011;6248;49.812;6.620;2023-02-22T12:14:46;14.50;;;11.45;;
12367;SDS011;6248;49.812;6.620;2023-02-22T12:17:25;17.83;;;11.35;;
12367;SDS011;6248;49.812;6.620;2023-02-22T12:19:56;13.63;;;11.75;;
12367;SDS011;6248;49.812;6.620;2023-02-22T12:22:27;12.93;;;11.23;;
12367;SDS011;6248;49.812;6.620;2023-02-22T12:24:59;15.35;;;12.00;;
12367;SDS011;6248;49.812;6.620;2023-02-22T12:27:29;14.18;;;11.73;;
12367;SDS011;6248;49.812;6.620;2023-02-22T12:29:58;16.77;;;12.85;;
12367;SDS011;6248;49.812;6.620;2023-02-22T12:32:33;15.15;;;12.50;;
12367;SDS011;6248;49.812;6.620;2023-02-22T12:35:08;14.57;;;12.90;;
12367;SDS011;6248;49.812;6.620;2023-02-22T12:37:39;13.73;;;12.32;;
12367;SDS011;6248;49.812;6.620;2023-02-22T12:40:10;16.13;;;12.63;;
12367;SDS011;6248;49.812;6.620;2023-02-22T12:42:43;13.75;;;12.32;;
12367;SDS011;6248;49.812;6.620;2023-02-22T12:45:15;14.95;;;12.88;;
12367;SDS011;6248;49.812;6.620;2023-02-22T12:47:46;18.10;;;12.70;;
12367;SDS011;6248;49.812;6.620;2023-02-22T12:50:16;13.77;;;12.02;;
12367;SDS011;6248;49.812;6.620;2023-02-22T12:52:48;17.17;;;13.07;;
12367;SDS011;6248;49.812;6.620;2023-02-22T12:55:17;16.40;;;13.75;;
12367;SDS011;6248;49.812;6.620;2023-02-22T12:57:47;16.02;;;13.00;;
12367;SDS011;6248;49.812;6.620;2023-02-22T13:00:16;19.23;;;13.77;;
12367;SDS011;6248;49.812;6.620;2023-02-22T13:02:50;15.15;;;13.02;;
12367;SDS011;6248;49.812;6.620;2023-02-22T13:05:20;14.55;;;12.80;;
12367;SDS011;6248;49.812;6.620;2023-02-22T13:07:50;14.55;;;12.80;;
12367;SDS011;6248;49.812;6.620;2023-02-22T13:10:30;15.60;;;13.07;;
12367;SDS011;6248;49.812;6.620;2023-02-22T13:13:01;17.27;;;13.30;;
12367;SDS011;6248;49.812;6.620;2023-02-22T13:15:32;17.70;;;13.35;;
12367;SDS011;6248;49.812;6.620;2023-02-22T13:18:04;16.23;;;13.70;;
12367;SDS011;6248;49.812;6.620;2023-02-22T13:20:36;15.25;;;13.43;;
12367;SDS011;6248;49.812;6.620;2023-02-22T13:23:07;15.60;;;13.60;;
12367;SDS011;6248;49.812;6.620;2023-02-22T13:25:37;15.23;;;13.43;;
12367;SDS011;6248;49.812;6.620;2023-02-22T13:28:17;15.57;;;13.18;;
12367;SDS011;6248;49.812;6.620;2023-02-22T13:30:48;15.38;;;13.60;;
12367;SDS011;6248;49.812;6.620;2023-02-22T13:33:27;15.50;;;13.80;;
12367;SDS011;6248;49.812;6.620;2023-02-22T13:36:04;16.27;;;13.40;;
12367;SDS011;6248;49.812;6.620;2023-02-22T13:38:56;14.82;;;13.18;;
12367;SDS011;6248;49.812;6.620;2023-02-22T13:41:33;16.17;;;13.60;;
12367;SDS011;6248;49.812;6.620;2023-02-22T13:44:08;15.77;;;12.82;;
12367;SDS011;6248;49.812;6.620;2023-02-22T13:46:45;17.98;;;13.73;;
12367;SDS011;6248;49.812;6.620;2023-02-22T13:49:23;14.57;;;13.02;;
12367;SDS011;6248;49.812;6.620;2023-02-22T13:51:54;14.52;;;12.55;;
12367;SDS011;6248;49.812;6.620;2023-02-22T13:54:23;15.20;;;12.73;;
12367;SDS011;6248;49.812;6.620;2023-02-22T13:56:52;15.07;;;12.85;;
12367;SDS011;6248;49.812;6.620;2023-02-22T13:59:24;16.10;;;13.77;;
12367;SDS011;6248;49.812;6.620;2023-02-22T14:01:51;15.10;;;13.15;;
12367;SDS011;6248;49.812;6.620;2023-02-22T14:04:33;15.85;;;14.15;;
12367;SDS011;6248;49.812;6.620;2023-02-22T14:07:01;17.70;;;13.90;;
12367;SDS011;6248;49.812;6.620;2023-02-22T14:09:42;15.73;;;14.10;;
12367;SDS011;6248;49.812;6.620;2023-02-22T14:12:24;14.82;;;13.30;;
12367;SDS011;6248;49.812;6.620;2023-02-22T14:15:14;18.23;;;14.43;;
12367;SDS011;6248;49.812;6.620;2023-02-22T14:17:42;19.80;;;15.52;;
12367;SDS011;6248;49.812;6.620;2023-02-22T14:20:21;17.17;;;15.10;;
12367;SDS011;6248;49.812;6.620;2023-02-22T14:22:54;17.13;;;15.10;;
12367;SDS011;6248;49.812;6.620;2023-02-22T14:25:29;17.48;;;15.52;;
12367;SDS011;6248;49.812;6.620;2023-02-22T14:27:57;17.38;;;15.27;;
12367;SDS011;6248;49.812;6.620;2023-02-22T14:30:26;17.42;;;15.63;;
12367;SDS011;6248;49.812;6.620;2023-02-22T14:32:54;16.80;;;15.13;;
12367;SDS011;6248;49.812;6.620;2023-02-22T14:35:23;18.30;;;16.33;;
12367;SDS011;6248;49.812;6.620;2023-02-22T14:37:51;17.40;;;15.57;;
12367;SDS011;6248;49.812;6.620;2023-02-22T14:40:21;18.05;;;16.08;;
12367;SDS011;6248;49.812;6.620;2023-02-22T14:42:50;18.67;;;16.13;;
12367;SDS011;6248;49.812;6.620;2023-02-22T14:45:21;18.60;;;15.65;;
12367;SDS011;6248;49.812;6.620;2023-02-22T14:47:50;24.27;;;16.30;;
12367;SDS011;6248;49.812;6.620;2023-02-22T14:50:28;20.33;;;15.95;;
12367;SDS011;6248;49.812;6.620;2023-02-22T14:53:00;18.60;;;16.20;;
12367;SDS011;6248;49.812;6.620;2023-02-22T14:55:27;17.75;;;15.85;;
12367;SDS011;6248;49.812;6.620;2023-02-22T14:57:58;20.75;;;16.33;;
12367;SDS011;6248;49.812;6.620;2023-02-22T15:00:26;17.58;;;15.40;;
12367;SDS011;6248;49.812;6.620;2023-02-22T15:02:58;19.05;;;16.25;;
12367;SDS011;6248;49.812;6.620;2023-02-22T15:05:28;18.88;;;15.75;;
12367;SDS011;6248;49.812;6.620;2023-02-22T15:07:56;18.58;;;15.27;;
12367;SDS011;6248;49.812;6.620;2023-02-22T15:10:26;17.85;;;16.05;;
12367;SDS011;6248;49.812;6.620;2023-02-22T15:12:54;16.42;;;14.73;;
12367;SDS011;6248;49.812;6.620;2023-02-22T15:15:33;20.52;;;16.95;;
12367;SDS011;6248;49.812;6.620;2023-02-22T15:18:00;20.38;;;16.02;;
12367;SDS011;6248;49.812;6.620;2023-02-22T15:20:32;20.77;;;16.75;;
12367;SDS011;6248;49.812;6.620;2023-02-22T15:23:00;19.17;;;16.73;;
12367;SDS011;6248;49.812;6.620;2023-02-22T15:25:27;17.63;;;15.75;;